This is the latest recevied weather packets stored in our database for station/object KJ7BRE-1. If no packets are shown the sender has not sent any weather packets the latest 10 day(s).
| Time | Temp. | Humidity | Pressure | Rain* | Wind** | Luminosity | Snow |
|---|---|---|---|---|---|---|---|
| 1778105440 | 19.44° C | 62% | 1014.2 hPa | 0 mm | - | - | - |
| 1778105139 | 19.44° C | 61% | 1014.2 hPa | 0 mm | - | - | - |
| 1778104837 | 19.44° C | 63% | 1014.2 hPa | 0 mm | - | - | - |
| 1778104536 | 20° C | 62% | 1014.2 hPa | 0 mm | - | - | - |
| 1778104235 | 20° C | 62% | 1014.2 hPa | 0 mm | - | - | - |
| 1778103933 | 19.44° C | 64% | 1013.9 hPa | 0 mm | - | - | - |
| 1778103632 | 18.89° C | 64% | 1014.2 hPa | 0 mm | - | - | - |
| 1778103331 | 19.44° C | 62% | 1014.2 hPa | 0 mm | - | - | - |
| 1778103030 | 18.89° C | 65% | 1014.2 hPa | 0 mm | - | - | - |
| 1778102728 | 18.89° C | 65% | 1014.2 hPa | 0 mm | - | - | - |
| 1778102427 | 18.33° C | 65% | 1014.6 hPa | 0 mm | - | - | - |
| 1778102126 | 18.89° C | 64% | 1014.6 hPa | 0 mm | - | - | - |
| 1778101825 | 18.89° C | 64% | 1014.6 hPa | 0 mm | - | - | - |
| 1778101523 | 18.89° C | 65% | 1014.6 hPa | 0 mm | - | - | - |
| 1778101222 | 18.33° C | 67% | 1014.6 hPa | 0 mm | - | - | - |
| 1778100921 | 18.89° C | 65% | 1014.9 hPa | 0 mm | - | - | - |
| 1778100619 | 18.33° C | 66% | 1014.6 hPa | 0 mm | - | - | - |
| 1778100318 | 18.33° C | 65% | 1014.6 hPa | 0 mm | - | - | - |
| 1778100017 | 18.89° C | 65% | 1014.6 hPa | 0 mm | - | - | - |
| 1778099716 | 18.89° C | 66% | 1014.6 hPa | 0 mm | - | - | - |
| 1778099415 | 18.89° C | 65% | 1014.6 hPa | 0 mm | - | - | - |
| 1778099113 | 18.33° C | 66% | 1014.6 hPa | 0 mm | - | - | - |
| 1778098812 | 18.89° C | 65% | 1014.6 hPa | 0 mm | - | - | - |
| 1778098511 | 18.33° C | 66% | 1014.6 hPa | 0 mm | - | - | - |
| 1778098210 | 18.33° C | 66% | 1014.6 hPa | 0 mm | - | - | - |
* Rain latest hour (hover to see other rain measurements)
** Current wind speed in m/s (hover to see current wind gust speed)